Saronic Champion — A8XF5 — position and weather

sailwx.info

Track history (hours):
 
Tides and Currents Weather Stations Pressure Air Temp Water Temp Dewpoint Dewpoint Depression Visibility Wind Speed Wind Dir Waves Ship Positions

Saronic Champion

Last reported at 2014-Nov-19 20:21 UTC. Time now 2014-Nov-23 05:59 UTC.
Position N 35°32' E 026°13'.

Length 229 m; draft 14.6 m.

Type: Cargo ship. MMSI: 636014887.

Date/timePositionNaut miles runAvg speedWind from/ knotsBaromVisibWave heightAir tempDewpointWater temp
2014-Nov-19 20:21N 35°32' E 026°13'1013.1
2014-Nov-19 19:33N 35°37' E 026°02'2613.2
2014-Nov-19 17:33N 35°51' E 025°34'1413.5
2014-Nov-19 16:33N 35°58' E 025°20'1313.3
2014-Nov-19 15:33N 36°05' E 025°06'1313.0
2014-Nov-19 14:33N 36°12' E 024°52'1313.2
2014-Nov-19 13:33N 36°19' E 024°39'1313.1
2014-Nov-19 12:33N 36°26' E 024°25'1212.2
2014-Nov-19 11:33N 36°35' E 024°14'1312.6
2014-Nov-19 10:33N 36°46' E 024°09'1313.0
2014-Nov-19 09:33N 36°58' E 024°03'4312.7
2014-Nov-19 06:13N 37°38' E 023°43'813.0
2014-Nov-19 05:33N 37°46' E 023°39'8 7.5
2014-Nov-19 04:33N 37°51' E 023°32'0 0.1
2014-Nov-19 03:33N 37°51' E 023°32'0 0.0
2014-Nov-19 02:33N 37°51' E 023°32'0 0.0
2014-Nov-19 01:33N 37°51' E 023°32'0 0.0
2014-Nov-19 00:33N 37°51' E 023°32'0 0.0
2014-Nov-18 23:33N 37°51' E 023°32'0 0.0
2014-Nov-18 22:33N 37°51' E 023°32'0 0.0
2014-Nov-18 21:33N 37°51' E 023°32'0 0.0
2014-Nov-18 20:33N 37°51' E 023°32'0 0.0
2014-Nov-18 19:33N 37°51' E 023°32'0 0.0
2014-Nov-18 18:33N 37°51' E 023°32'0 0.1
2014-Nov-18 17:33N 37°51' E 023°32'2 1.5
2014-Nov-18 16:33N 37°51' E 023°34'5 5.3
2014-Nov-18 15:33N 37°49' E 023°40'1313.2
2014-Nov-18 14:33N 37°38' E 023°48'1512.6
2014-Nov-18 13:22N 37°34' E 024°06'2413.3
2014-Nov-18 11:33N 37°51' E 024°29'  
2014-Nov-15 08:32N 46°19' E 030°40'0 0.0
2014-Nov-15 00:29N 46°19' E 030°40'0 0.0
2014-Nov-14 23:33N 46°19' E 030°40'0 0.0
2014-Nov-14 22:33N 46°19' E 030°40'0 0.0
2014-Nov-14 21:34N 46°19' E 030°40'0 0.0
2014-Nov-14 20:33N 46°19' E 030°40'0 0.0
2014-Nov-14 19:19N 46°19' E 030°40'0 0.0
2014-Nov-13 12:28N 46°19' E 030°40'0 0.0
2014-Nov-13 10:25N 46°19' E 030°40'0 0.0
2014-Nov-13 09:33N 46°19' E 030°40'0 0.1
2014-Nov-13 08:24N 46°19' E 030°40'0 0.0
2014-Nov-13 07:34N 46°19' E 030°40'0 0.0
2014-Nov-13 05:14N 46°19' E 030°40'0 0.0
2014-Nov-13 01:25N 46°19' E 030°40'0 0.0
2014-Nov-13 00:27N 46°19' E 030°40'0 0.0
2014-Nov-11 15:14N 46°19' E 030°40'0 0.0
2014-Nov-11 14:30N 46°19' E 030°40'0 0.0
2014-Nov-11 13:11N 46°19' E 030°40'0 0.0
2014-Nov-11 12:32N 46°19' E 030°40'0 0.0
2014-Nov-11 10:33N 46°19' E 030°40'0 0.0
2014-Nov-11 08:14N 46°19' E 030°40'0 0.0
2014-Nov-11 07:19N 46°19' E 030°40'0 0.0
2014-Nov-11 05:19N 46°19' E 030°40'0 0.0
2014-Nov-11 02:09N 46°19' E 030°40'0 0.0
2014-Nov-10 12:08N 46°19' E 030°40'0 0.0
2014-Nov-10 05:13N 46°19' E 030°40'0 0.0
2014-Nov-10 04:33N 46°19' E 030°40'0 0.0
2014-Nov-10 00:34N 46°19' E 030°40'  
Track history (hours):
 
Tides and Currents Weather Stations Pressure Air Temp Water Temp Dewpoint Dewpoint Depression Visibility Wind Speed Wind Dir Waves Ship Positions

Saronic Champion

Last reported at 2014-Nov-19 20:21 UTC. Time now 2014-Nov-23 05:59 UTC.
Position N 35°32' E 026°13'.

Length 229 m; draft 14.6 m.

Type: Cargo ship. MMSI: 636014887.

Date/timePositionNaut miles runAvg speedWind from/ knotsBaromVisibWave heightAir tempDewpointWater temp
2014-Nov-19 20:21N 35°32' E 026°13'1013.1
2014-Nov-19 19:33N 35°37' E 026°02'2613.2
2014-Nov-19 17:33N 35°51' E 025°34'1413.5
2014-Nov-19 16:33N 35°58' E 025°20'1313.3
2014-Nov-19 15:33N 36°05' E 025°06'1313.0
2014-Nov-19 14:33N 36°12' E 024°52'1313.2
2014-Nov-19 13:33N 36°19' E 024°39'1313.1
2014-Nov-19 12:33N 36°26' E 024°25'1212.2
2014-Nov-19 11:33N 36°35' E 024°14'1312.6
2014-Nov-19 10:33N 36°46' E 024°09'1313.0
2014-Nov-19 09:33N 36°58' E 024°03'4312.7
2014-Nov-19 06:13N 37°38' E 023°43'813.0
2014-Nov-19 05:33N 37°46' E 023°39'8 7.5
2014-Nov-19 04:33N 37°51' E 023°32'0 0.1
2014-Nov-19 03:33N 37°51' E 023°32'0 0.0
2014-Nov-19 02:33N 37°51' E 023°32'0 0.0
2014-Nov-19 01:33N 37°51' E 023°32'0 0.0
2014-Nov-19 00:33N 37°51' E 023°32'0 0.0
2014-Nov-18 23:33N 37°51' E 023°32'0 0.0
2014-Nov-18 22:33N 37°51' E 023°32'0 0.0
2014-Nov-18 21:33N 37°51' E 023°32'0 0.0
2014-Nov-18 20:33N 37°51' E 023°32'0 0.0
2014-Nov-18 19:33N 37°51' E 023°32'0 0.0
2014-Nov-18 18:33N 37°51' E 023°32'0 0.1
2014-Nov-18 17:33N 37°51' E 023°32'2 1.5
2014-Nov-18 16:33N 37°51' E 023°34'5 5.3
2014-Nov-18 15:33N 37°49' E 023°40'1313.2
2014-Nov-18 14:33N 37°38' E 023°48'1512.6
2014-Nov-18 13:22N 37°34' E 024°06'2413.3
2014-Nov-18 11:33N 37°51' E 024°29'  
2014-Nov-15 08:32N 46°19' E 030°40'0 0.0
2014-Nov-15 00:29N 46°19' E 030°40'0 0.0
2014-Nov-14 23:33N 46°19' E 030°40'0 0.0
2014-Nov-14 22:33N 46°19' E 030°40'0 0.0
2014-Nov-14 21:34N 46°19' E 030°40'0 0.0
2014-Nov-14 20:33N 46°19' E 030°40'0 0.0
2014-Nov-14 19:19N 46°19' E 030°40'0 0.0
2014-Nov-13 12:28N 46°19' E 030°40'0 0.0
2014-Nov-13 10:25N 46°19' E 030°40'0 0.0
2014-Nov-13 09:33N 46°19' E 030°40'0 0.1
2014-Nov-13 08:24N 46°19' E 030°40'0 0.0
2014-Nov-13 07:34N 46°19' E 030°40'0 0.0
2014-Nov-13 05:14N 46°19' E 030°40'0 0.0
2014-Nov-13 01:25N 46°19' E 030°40'0 0.0
2014-Nov-13 00:27N 46°19' E 030°40'0 0.0
2014-Nov-11 15:14N 46°19' E 030°40'0 0.0
2014-Nov-11 14:30N 46°19' E 030°40'0 0.0
2014-Nov-11 13:11N 46°19' E 030°40'0 0.0
2014-Nov-11 12:32N 46°19' E 030°40'0 0.0
2014-Nov-11 10:33N 46°19' E 030°40'0 0.0
2014-Nov-11 08:14N 46°19' E 030°40'0 0.0
2014-Nov-11 07:19N 46°19' E 030°40'0 0.0
2014-Nov-11 05:19N 46°19' E 030°40'0 0.0
2014-Nov-11 02:09N 46°19' E 030°40'0 0.0
2014-Nov-10 12:08N 46°19' E 030°40'0 0.0
2014-Nov-10 05:13N 46°19' E 030°40'0 0.0
2014-Nov-10 04:33N 46°19' E 030°40'0 0.0
2014-Nov-10 00:34N 46°19' E 030°40'  

Dump ship's entire track history